Schefferville, Canada
Current Conditions -  °F | °C
As of 11:00 PM on Thursday 18 Dec 2014 (Local Time) from CYKL Reporting Station
Clear Clear  
Wind Chill: -4°   Ceiling: Unl
Heat Index: -4°   Visibility: 9mi
Dew Point: -9°   Wind: 3mph
Humidity: 78%   Direction: 120°ESE
Pressure: 29.86"   Gusts: NA
Location:  54.8°N, 66.83°W
Report Text: CYKL 190400Z AUTO 12003KT 9SM CLR M20/M23 A2986 RMK SLP169
Loading
Personal Weather Stations






























Interactive Weather Map New forecast layout! Learn more

10-Day Weather Forecast

Advertisements
Track Severe Weather on mobile